Time;durP1;ratioP1;P1;durP2;ratioP2;P2;SDS_P1;SDS_P2;PMS_P1;PMS_P2;Temp;Humidity;BMP_temperature;BMP_pressure;BME280_temperature;BME280_humidity;BME280_pressure;Samples;Min_cycle;Max_cycle;Signal;HPM_P1;HPM_P2
2023/01/07 00:01:09;;;;;;;0.00;0.00;;;9.80;99.90;;;;;;5013113;28;20222;-68
2023/01/07 00:03:35;;;;;;;0.00;0.00;;;9.80;99.90;;;;;;4995825;28;20179;-67
2023/01/07 00:06:03;;;;;;;0.00;0.00;;;9.80;99.90;;;;;;5013115;28;20329;-67
2023/01/07 00:08:30;;;;;;;0.00;0.00;;;9.90;99.90;;;;;;4993822;28;20179;-67
2023/01/07 00:10:59;;;;;;;0.00;0.00;;;9.90;99.90;;;;;;5003609;28;20241;-67
2023/01/07 00:13:24;;;;;;;0.00;0.00;;;9.90;99.90;;;;;;4994358;28;20186;-67
2023/01/07 00:15:51;;;;;;;0.00;0.00;;;9.90;99.90;;;;;;5013429;28;20179;-67
2023/01/07 00:18:16;;;;;;;0.00;0.00;;;10.00;99.90;;;;;;5013216;28;20666;-68
2023/01/07 00:20:42;;;;;;;0.00;0.00;;;9.90;99.90;;;;;;4995189;28;20218;-68
2023/01/07 00:23:07;;;;;;;0.00;0.00;;;9.90;99.90;;;;;;5013172;28;20208;-67
2023/01/07 00:25:32;;;;;;;0.00;0.00;;;10.00;99.90;;;;;;5012715;28;20206;-68
2023/01/07 00:27:58;;;;;;;0.00;0.00;;;10.00;99.90;;;;;;5012655;28;20201;-67
2023/01/07 00:30:23;;;;;;;0.00;0.00;;;10.00;99.90;;;;;;5012868;28;20179;-67
2023/01/07 00:33:03;;;;;;;0.00;0.00;;;10.00;99.90;;;;;;4995054;28;20181;-67
2023/01/07 00:35:30;;;;;;;0.00;0.00;;;10.00;99.90;;;;;;5012923;28;20644;-67
2023/01/07 00:37:56;;;;;;;0.00;0.00;;;10.00;99.90;;;;;;5012975;28;20178;-67
2023/01/07 00:40:22;;;;;;;0.00;0.00;;;9.90;99.90;;;;;;5012514;28;20572;-67
2023/01/07 00:42:54;;;;;;;0.00;0.00;;;10.00;99.90;;;;;;5012102;28;20183;-67
2023/01/07 00:45:21;;;;;;;0.00;0.00;;;10.00;99.90;;;;;;5012612;28;20574;-67
2023/01/07 00:47:46;;;;;;;0.00;0.00;;;9.90;99.90;;;;;;5012627;28;20241;-67
2023/01/07 00:50:12;;;;;;;0.00;0.00;;;10.00;99.90;;;;;;5012530;28;20187;-67
2023/01/07 00:52:38;;;;;;;0.00;0.00;;;9.90;99.90;;;;;;5012691;28;20637;-67
2023/01/07 00:55:03;;;;;;;0.00;0.00;;;9.90;99.90;;;;;;5012157;28;20190;-68
2023/01/07 00:57:29;;;;;;;0.00;0.00;;;9.90;99.90;;;;;;5012153;28;20214;-67
2023/01/07 00:59:54;;;;;;;0.00;0.00;;;9.90;99.90;;;;;;5012546;28;20210;-67
2023/01/07 01:02:21;;;;;;;0.00;0.00;;;9.90;99.90;;;;;;5012243;28;20189;-67
2023/01/07 01:04:46;;;;;;;0.00;0.00;;;9.90;99.90;;;;;;5012471;28;20187;-67
2023/01/07 01:07:12;;;;;;;0.00;0.00;;;9.90;99.90;;;;;;5012244;28;20183;-67
2023/01/07 01:09:37;;;;;;;0.00;0.00;;;9.90;99.90;;;;;;5011983;28;20175;-67
2023/01/07 01:12:03;;;;;;;0.00;0.00;;;9.90;99.90;;;;;;5001122;28;20179;-68
2023/01/07 01:14:28;;;;;;;0.00;0.00;;;10.00;99.90;;;;;;4992857;28;20179;-68
2023/01/07 01:16:54;;;;;;;0.00;0.00;;;9.90;99.90;;;;;;5009213;28;20193;-68
2023/01/07 01:19:19;;;;;;;0.00;0.00;;;9.90;99.90;;;;;;4994002;28;20197;-68
2023/01/07 01:21:45;;;;;;;0.00;0.00;;;9.90;99.90;;;;;;5012258;28;20187;-68
2023/01/07 01:24:10;;;;;;;0.00;0.00;;;9.90;99.90;;;;;;4994558;28;20190;-68
2023/01/07 01:26:36;;;;;;;0.00;0.00;;;9.90;99.90;;;;;;5011645;28;20206;-68
2023/01/07 01:29:01;;;;;;;0.00;0.00;;;10.00;99.90;;;;;;5011857;28;20174;-68
2023/01/07 01:31:27;;;;;;;0.00;0.00;;;10.00;99.90;;;;;;5011797;28;20183;-68
2023/01/07 01:33:54;;;;;;;0.00;0.00;;;10.00;99.90;;;;;;5012312;28;20266;-68
2023/01/07 01:36:19;;;;;;;0.00;0.00;;;10.00;99.90;;;;;;5011824;28;20544;-68
2023/01/07 01:38:45;;;;;;;0.00;0.00;;;10.00;99.90;;;;;;4994365;28;20182;-68
2023/01/07 01:41:15;;;;;;;0.00;0.00;;;10.00;99.90;;;;;;5011320;28;20260;-68
2023/01/07 01:43:41;;;;;;;0.00;0.00;;;10.00;99.90;;;;;;5010838;28;20182;-68
2023/01/07 01:46:15;;;;;;;0.00;0.00;;;10.00;99.90;;;;;;5011542;28;20193;-68
2023/01/07 01:48:48;;;;;;;0.00;0.00;;;10.00;99.90;;;;;;5006969;28;20195;-67
2023/01/07 01:51:17;;;;;;;0.00;0.00;;;10.00;99.90;;;;;;5011304;28;20237;-68
2023/01/07 01:53:43;;;;;;;0.00;0.00;;;10.00;99.90;;;;;;5011883;28;20235;-68
2023/01/07 01:56:15;;;;;;;0.00;0.00;;;10.00;99.90;;;;;;5011760;28;20592;-68
2023/01/07 01:58:46;;;;;;;0.00;0.00;;;10.00;99.90;;;;;;5011421;28;20186;-68
2023/01/07 02:01:12;;;;;;;0.00;0.00;;;10.00;99.90;;;;;;5011539;28;20622;-68
2023/01/07 02:03:38;;;;;;;0.00;0.00;;;10.00;99.90;;;;;;5011380;28;20721;-67
2023/01/07 02:06:08;;;;;;;0.00;0.00;;;10.00;99.90;;;;;;5012794;28;20313;-68
2023/01/07 02:08:33;;;;;;;0.00;0.00;;;10.00;99.90;;;;;;4996263;28;20210;-68
2023/01/07 02:11:27;;;;;;;0.00;0.00;;;10.00;99.90;;;;;;5005918;28;20649;-68
2023/01/07 02:14:02;;;;;;;0.00;0.00;;;10.00;99.90;;;;;;5015417;28;20777;-68
2023/01/07 02:16:32;;;;;;;0.00;0.00;;;10.00;99.90;;;;;;5015251;28;20177;-68
2023/01/07 02:19:03;;;;;;;0.00;0.00;;;10.00;99.90;;;;;;5015455;28;20183;-68
2023/01/07 02:21:45;;;;;;;0.00;0.00;;;10.00;99.90;;;;;;5015025;28;20218;-68
2023/01/07 02:24:32;;;;;;;0.00;0.00;;;10.00;99.90;;;;;;5015208;28;20178;-68
2023/01/07 02:27:15;;;;;;;0.00;0.00;;;10.00;99.90;;;;;;5015294;28;20269;-68
2023/01/07 02:30:18;;;;;;;0.00;0.00;;;10.00;99.90;;;;;;5014834;28;20281;-67
2023/01/07 02:32:56;;;;;;;0.00;0.00;;;10.00;99.90;;;;;;5014842;28;20197;-67
2023/01/07 02:35:48;;;;;;;0.00;0.00;;;10.00;99.90;;;;;;5014913;28;20197;-67
2023/01/07 02:38:37;;;;;;;0.00;0.00;;;10.00;99.90;;;;;;5015238;28;20229;-68
2023/01/07 02:41:02;;;;;;;0.00;0.00;;;10.00;99.90;;;;;;5015027;28;20210;-68
2023/01/07 02:44:09;;;;;;;0.00;0.00;;;10.00;99.90;;;;;;5014278;28;20193;-68
2023/01/07 02:46:49;;;;;;;0.00;0.00;;;10.00;99.90;;;;;;5001257;28;20210;-68
2023/01/07 02:49:17;;;;;;;0.00;0.00;;;10.00;99.90;;;;;;5014446;28;20642;-68
2023/01/07 02:51:44;;;;;;;0.00;0.00;;;10.00;99.90;;;;;;5014421;28;20206;-68
2023/01/07 02:54:20;;;;;;;0.00;0.00;;;10.00;99.90;;;;;;5014154;28;20588;-68
2023/01/07 02:57:28;;;;;;;0.00;0.00;;;10.00;99.90;;;;;;5002288;28;20178;-68
2023/01/07 03:00:12;;;;;;;0.00;0.00;;;10.00;99.90;;;;;;4995671;28;20218;-68
2023/01/07 03:03:12;;;;;;;0.00;0.00;;;10.00;99.90;;;;;;5013913;28;20191;-68
2023/01/07 03:06:11;;;;;;;0.00;0.00;;;10.10;99.90;;;;;;5014225;28;20179;-68
2023/01/07 03:08:45;;;;;;;0.00;0.00;;;10.10;99.90;;;;;;5010679;28;20179;-68
2023/01/07 03:11:11;;;;;;;0.00;0.00;;;10.10;99.90;;;;;;5007413;28;20189;-68
2023/01/07 03:13:50;;;;;;;0.00;0.00;;;10.10;99.90;;;;;;5013954;28;20268;-68
2023/01/07 03:16:24;;;;;;;0.00;0.00;;;10.10;99.90;;;;;;5014607;28;20190;-68
2023/01/07 03:18:59;;;;;;;0.00;0.00;;;10.10;99.90;;;;;;4994630;28;20273;-68
2023/01/07 03:21:27;;;;;;;0.00;0.00;;;10.00;99.90;;;;;;5005859;28;20224;-68
2023/01/07 03:23:55;;;;;;;0.00;0.00;;;10.00;99.90;;;;;;5013925;28;20213;-67
2023/01/07 03:26:25;;;;;;;0.00;0.00;;;10.00;99.90;;;;;;5014303;28;20183;-67
2023/01/07 03:28:52;;;;;;;0.00;0.00;;;10.00;99.90;;;;;;4996093;28;20179;-67
2023/01/07 03:31:20;;;;;;;0.00;0.00;;;10.00;99.90;;;;;;5013893;28;20262;-67
2023/01/07 03:33:56;;;;;;;0.00;0.00;;;10.00;99.90;;;;;;5014142;28;20190;-67
2023/01/07 03:36:27;;;;;;;0.00;0.00;;;10.00;99.90;;;;;;5013639;28;20261;-67
2023/01/07 03:38:55;;;;;;;0.00;0.00;;;10.00;99.90;;;;;;5013940;28;20678;-67
2023/01/07 03:44:05;;;;;;;0.00;0.00;;;10.00;99.90;;;;;;5013423;28;20244;-68
2023/01/07 03:46:33;;;;;;;0.00;0.00;;;9.90;99.90;;;;;;5013579;28;20186;-67
2023/01/07 03:48:58;;;;;;;0.00;0.00;;;9.90;99.90;;;;;;5013430;28;20634;-67
2023/01/07 03:51:24;;;;;;;0.00;0.00;;;9.90;99.90;;;;;;5013493;28;20262;-67
2023/01/07 03:53:49;;;;;;;0.00;0.00;;;9.90;99.90;;;;;;5013352;28;20215;-67
2023/01/07 03:56:15;;;;;;;0.00;0.00;;;9.90;99.90;;;;;;4995847;28;20183;-68
2023/01/07 03:58:40;;;;;;;0.00;0.00;;;10.00;99.90;;;;;;5013026;28;20564;-68
2023/01/07 04:01:06;;;;;;;0.00;0.00;;;9.90;99.90;;;;;;5012911;28;20362;-68
2023/01/07 04:03:31;;;;;;;0.00;0.00;;;9.90;99.90;;;;;;5013196;28;20187;-68
2023/01/07 04:05:57;;;;;;;0.00;0.00;;;9.90;99.90;;;;;;5013339;28;20214;-68
2023/01/07 04:08:22;;;;;;;0.00;0.00;;;9.90;99.90;;;;;;5013346;28;20178;-68
2023/01/07 04:10:48;;;;;;;0.00;0.00;;;9.90;99.90;;;;;;5012722;28;20236;-68
2023/01/07 04:13:13;;;;;;;0.00;0.00;;;9.90;99.90;;;;;;5012573;28;20179;-68
2023/01/07 04:15:39;;;;;;;0.00;0.00;;;10.00;99.90;;;;;;5012417;28;20218;-66
2023/01/07 04:18:05;;;;;;;0.00;0.00;;;9.90;99.90;;;;;;5012794;28;20182;-66
2023/01/07 04:20:31;;;;;;;0.00;0.00;;;9.90;99.90;;;;;;5012579;28;20226;-66
2023/01/07 04:22:56;;;;;;;0.00;0.00;;;9.90;99.90;;;;;;5013194;28;20183;-66
2023/01/07 04:25:22;;;;;;;0.00;0.00;;;9.90;99.90;;;;;;5012538;28;20554;-66
2023/01/07 04:27:47;;;;;;;0.00;0.00;;;9.90;99.90;;;;;;5012648;28;20190;-66
2023/01/07 04:30:13;;;;;;;0.00;0.00;;;9.90;99.90;;;;;;5012036;28;20183;-66
2023/01/07 04:32:38;;;;;;;0.00;0.00;;;10.00;99.90;;;;;;5012445;28;20286;-66
2023/01/07 04:35:04;;;;;;;0.00;0.00;;;10.00;99.90;;;;;;5012582;28;20550;-66
2023/01/07 04:37:30;;;;;;;0.00;0.00;;;10.00;99.90;;;;;;4995269;28;20681;-66
2023/01/07 04:39:55;;;;;;;0.00;0.00;;;10.00;99.90;;;;;;5012540;28;20214;-66
2023/01/07 04:42:21;;;;;;;0.00;0.00;;;10.00;99.90;;;;;;5012286;28;20258;-66
2023/01/07 04:44:46;;;;;;;0.00;0.00;;;10.00;99.90;;;;;;5012209;28;20664;-66
2023/01/07 04:47:12;;;;;;;0.00;0.00;;;10.00;99.90;;;;;;5012702;28;20186;-66
2023/01/07 04:49:37;;;;;;;0.00;0.00;;;10.00;99.90;;;;;;5005472;28;20191;-66
2023/01/07 04:52:03;;;;;;;0.00;0.00;;;10.00;99.90;;;;;;5012843;28;20182;-66
2023/01/07 04:54:29;;;;;;;0.00;0.00;;;9.90;99.90;;;;;;5011899;28;20235;-66
2023/01/07 04:56:55;;;;;;;0.00;0.00;;;9.90;99.90;;;;;;5012481;28;20191;-66
2023/01/07 04:59:21;;;;;;;0.00;0.00;;;9.90;99.90;;;;;;5012160;28;20171;-66
2023/01/07 05:01:46;;;;;;;0.00;0.00;;;9.90;99.90;;;;;;5012347;28;20238;-66
2023/01/07 05:04:12;;;;;;;0.00;0.00;;;9.90;99.90;;;;;;5012286;28;20186;-66
2023/01/07 05:06:37;;;;;;;0.10;0.10;;;9.90;99.90;;;;;;5011975;28;20210;-66
2023/01/07 05:09:03;;;;;;;0.00;0.00;;;9.90;99.90;;;;;;5012469;28;20607;-66
2023/01/07 05:11:28;;;;;;;0.00;0.00;;;9.90;99.90;;;;;;5011929;28;20187;-66
2023/01/07 05:13:54;;;;;;;0.00;0.00;;;9.90;99.90;;;;;;4994254;28;20182;-66
2023/01/07 05:16:19;;;;;;;0.00;0.00;;;9.90;99.90;;;;;;5010075;28;20198;-66
2023/01/07 05:18:45;;;;;;;0.00;0.00;;;9.90;99.90;;;;;;5011449;28;20187;-66
2023/01/07 05:21:11;;;;;;;0.00;0.00;;;10.00;99.90;;;;;;5011045;28;20214;-66
2023/01/07 05:23:37;;;;;;;0.00;0.00;;;9.90;99.90;;;;;;5011974;28;20178;-66
2023/01/07 05:26:02;;;;;;;0.00;0.00;;;9.90;99.90;;;;;;5011632;28;20245;-66
2023/01/07 05:28:28;;;;;;;0.00;0.00;;;9.90;99.90;;;;;;5011645;28;20181;-66
2023/01/07 05:30:53;;;;;;;0.28;0.28;;;9.80;99.90;;;;;;5011123;28;20183;-66
2023/01/07 05:33:19;;;;;;;0.00;0.00;;;9.80;99.90;;;;;;5011627;28;20236;-66
2023/01/07 05:35:47;;;;;;;0.00;0.00;;;9.70;99.90;;;;;;5011740;28;20194;-66
2023/01/07 05:38:13;;;;;;;0.08;0.08;;;9.70;99.90;;;;;;5011393;28;20174;-66
2023/01/07 05:40:40;;;;;;;0.00;0.00;;;9.70;99.90;;;;;;5010583;28;20697;-67
2023/01/07 05:43:06;;;;;;;0.00;0.00;;;9.70;99.90;;;;;;4994003;28;20182;-67
2023/01/07 05:45:31;;;;;;;0.00;0.00;;;9.70;99.90;;;;;;5009674;28;20179;-66
2023/01/07 05:47:57;;;;;;;0.00;0.00;;;9.70;99.90;;;;;;5011809;28;20186;-67
2023/01/07 05:50:22;;;;;;;0.00;0.00;;;9.70;99.90;;;;;;5011421;28;20186;-67
2023/01/07 05:52:50;;;;;;;0.00;0.00;;;9.70;99.90;;;;;;5010991;28;20648;-67
2023/01/07 05:55:15;;;;;;;0.00;0.00;;;9.70;99.90;;;;;;5011152;28;20724;-67
2023/01/07 05:57:41;;;;;;;0.00;0.00;;;9.70;99.90;;;;;;5010979;28;20226;-67
2023/01/07 06:00:09;;;;;;;0.00;0.00;;;9.70;99.90;;;;;;5010680;28;20566;-68
2023/01/07 06:02:35;;;;;;;0.00;0.00;;;9.70;99.90;;;;;;5011034;28;20194;-67
2023/01/07 06:05:00;;;;;;;0.10;0.10;;;9.70;99.90;;;;;;5011565;28;20185;-67
2023/01/07 06:07:26;;;;;;;0.10;0.10;;;9.70;99.90;;;;;;5000348;28;20187;-67
2023/01/07 06:09:51;;;;;;;0.00;0.00;;;9.70;99.90;;;;;;5011581;28;20638;-67
2023/01/07 06:12:17;;;;;;;0.00;0.00;;;9.70;99.90;;;;;;5004486;28;20183;-68
2023/01/07 06:14:43;;;;;;;0.00;0.00;;;9.70;99.90;;;;;;4974740;28;20203;-67
2023/01/07 06:17:08;;;;;;;0.00;0.00;;;9.70;99.90;;;;;;4992102;28;20168;-67
2023/01/07 06:19:34;;;;;;;0.00;0.00;;;9.70;99.90;;;;;;4991755;28;20620;-67
2023/01/07 06:21:59;;;;;;;0.00;0.00;;;9.70;99.90;;;;;;4991496;28;20207;-66
2023/01/07 06:24:25;;;;;;;0.00;0.00;;;9.70;99.90;;;;;;5011605;28;20206;-66
2023/01/07 06:26:50;;;;;;;0.00;0.00;;;9.70;99.90;;;;;;5011188;28;20241;-66
2023/01/07 06:29:16;;;;;;;0.00;0.00;;;9.80;99.90;;;;;;5011227;28;20182;-66
2023/01/07 06:31:42;;;;;;;0.00;0.00;;;9.80;99.90;;;;;;5011235;28;20642;-66
2023/01/07 06:34:07;;;;;;;0.00;0.00;;;9.80;99.90;;;;;;5010911;28;20195;-66
2023/01/07 06:36:33;;;;;;;0.00;0.00;;;9.80;99.90;;;;;;5011178;28;20278;-67
2023/01/07 06:38:58;;;;;;;0.00;0.00;;;9.80;99.90;;;;;;5011137;28;20257;-68
2023/01/07 06:41:24;;;;;;;0.00;0.00;;;9.80;99.90;;;;;;5010922;28;20310;-66
2023/01/07 06:43:49;;;;;;;0.00;0.00;;;9.80;99.90;;;;;;5011336;28;20177;-68
2023/01/07 06:46:15;;;;;;;0.00;0.00;;;9.70;99.90;;;;;;5010852;28;20576;-67
2023/01/07 06:48:40;;;;;;;0.00;0.00;;;9.70;99.90;;;;;;5010792;28;20213;-68
2023/01/07 06:51:06;;;;;;;0.00;0.00;;;9.70;99.90;;;;;;5011169;28;20233;-67
2023/01/07 06:53:31;;;;;;;0.00;0.00;;;9.70;99.90;;;;;;4996470;28;20275;-67
2023/01/07 06:55:57;;;;;;;0.00;0.00;;;9.70;99.90;;;;;;5015169;28;20183;-67
2023/01/07 06:58:22;;;;;;;0.00;0.00;;;9.70;99.90;;;;;;4981010;28;20189;-68
2023/01/07 07:00:48;;;;;;;0.00;0.00;;;9.70;99.90;;;;;;5014689;28;20211;-67
2023/01/07 07:03:13;;;;;;;0.00;0.00;;;9.70;99.90;;;;;;5015019;28;20609;-65
2023/01/07 07:05:39;;;;;;;0.00;0.00;;;9.70;99.90;;;;;;5014351;28;20246;-66
2023/01/07 07:08:05;;;;;;;0.00;0.00;;;9.60;99.90;;;;;;5015125;28;20179;-68
2023/01/07 07:10:30;;;;;;;0.00;0.00;;;9.70;99.90;;;;;;5014312;28;20187;-67
2023/01/07 07:12:56;;;;;;;0.00;0.00;;;9.60;99.90;;;;;;5014573;28;20178;-67
2023/01/07 07:15:21;;;;;;;0.00;0.00;;;9.60;99.90;;;;;;5014619;28;20541;-68
2023/01/07 07:17:47;;;;;;;0.00;0.00;;;9.60;99.90;;;;;;5014408;28;20178;-67
2023/01/07 07:20:13;;;;;;;0.00;0.00;;;9.60;99.90;;;;;;5014776;28;20219;-69
2023/01/07 07:22:44;;;;;;;0.00;0.00;;;9.60;99.90;;;;;;5014165;28;20174;-70
2023/01/07 07:25:10;;;;;;;0.00;0.00;;;9.50;99.90;;;;;;5014518;28;20221;-67
2023/01/07 07:27:35;;;;;;;0.00;0.00;;;9.50;99.90;;;;;;5014039;28;20187;-64
2023/01/07 07:30:01;;;;;;;0.00;0.00;;;9.40;99.90;;;;;;5013890;28;20171;-67
2023/01/07 07:32:27;;;;;;;0.00;0.00;;;9.40;99.90;;;;;;5006941;28;20203;-63
2023/01/07 07:34:54;;;;;;;0.00;0.00;;;9.40;99.90;;;;;;5008847;28;20222;-67
2023/01/07 07:37:19;;;;;;;0.00;0.00;;;9.30;99.90;;;;;;5012310;28;20187;-66
2023/01/07 07:39:45;;;;;;;0.00;0.00;;;9.30;99.90;;;;;;5005320;28;20183;-67
2023/01/07 07:42:10;;;;;;;0.00;0.00;;;9.30;99.90;;;;;;4994712;28;20192;-67
2023/01/07 07:44:36;;;;;;;0.00;0.00;;;9.30;99.90;;;;;;5006881;28;20269;-66
2023/01/07 07:47:02;;;;;;;0.00;0.00;;;9.40;99.90;;;;;;5014158;28;20171;-66
2023/01/07 07:49:28;;;;;;;0.00;0.00;;;9.40;99.90;;;;;;5010968;28;20781;-67
2023/01/07 07:51:54;;;;;;;0.00;0.00;;;9.40;99.90;;;;;;4995033;28;20254;-66
2023/01/07 07:54:19;;;;;;;0.00;0.00;;;9.40;99.90;;;;;;5013556;28;20308;-67
2023/01/07 07:56:45;;;;;;;0.00;0.00;;;9.40;99.90;;;;;;4996231;28;20171;-67
2023/01/07 07:59:11;;;;;;;0.00;0.00;;;9.40;99.90;;;;;;5019797;28;20194;-66
2023/01/07 08:01:36;;;;;;;0.00;0.00;;;9.40;99.90;;;;;;5019450;28;20222;-66
2023/01/07 08:04:02;;;;;;;0.00;0.00;;;9.40;99.90;;;;;;5012872;28;20250;-66
2023/01/07 08:06:27;;;;;;;0.00;0.00;;;9.40;99.90;;;;;;5013763;28;20190;-67
2023/01/07 08:08:53;;;;;;;0.00;0.00;;;9.40;99.90;;;;;;5013527;28;20185;-67
2023/01/07 08:11:18;;;;;;;0.00;0.00;;;9.30;99.90;;;;;;5019125;28;20575;-66
2023/01/07 08:13:44;;;;;;;0.00;0.00;;;9.40;99.90;;;;;;5033363;28;20174;-66
2023/01/07 08:16:09;;;;;;;0.00;0.00;;;9.40;99.90;;;;;;5033444;28;20174;-66
2023/01/07 08:18:35;;;;;;;0.00;0.00;;;9.30;99.90;;;;;;5033228;28;20186;-66
2023/01/07 08:21:00;;;;;;;0.00;0.00;;;9.40;99.90;;;;;;5021786;28;20218;-66
2023/01/07 08:23:30;;;;;;;0.00;0.00;;;9.30;99.90;;;;;;5012730;28;20266;-66
2023/01/07 08:25:59;;;;;;;0.00;0.00;;;9.30;99.90;;;;;;5013261;28;20228;-66
2023/01/07 08:28:24;;;;;;;0.00;0.00;;;9.40;99.90;;;;;;5013351;28;20183;-67
2023/01/07 08:30:50;;;;;;;0.00;0.00;;;9.40;99.90;;;;;;5013203;28;20182;-67
2023/01/07 08:33:15;;;;;;;0.00;0.00;;;9.30;99.90;;;;;;5013138;28;20190;-67
2023/01/07 08:35:41;;;;;;;0.00;0.00;;;9.30;99.90;;;;;;5012777;28;20634;-66
2023/01/07 08:38:08;;;;;;;0.05;0.05;;;9.30;99.90;;;;;;5013101;28;20681;-67
2023/01/07 08:40:34;;;;;;;0.00;0.00;;;9.50;99.90;;;;;;5012580;28;20670;-67
2023/01/07 08:43:01;;;;;;;0.00;0.00;;;9.50;99.90;;;;;;5012736;28;20175;-66
2023/01/07 08:45:28;;;;;;;0.00;0.00;;;9.50;99.90;;;;;;5012869;28;20187;-66
2023/01/07 08:47:56;;;;;;;0.00;0.00;;;9.50;99.90;;;;;;5012246;28;20517;-66
2023/01/07 08:50:29;;;;;;;0.00;0.00;;;9.50;99.90;;;;;;5012352;28;20533;-66
2023/01/07 08:52:55;;;;;;;0.10;0.10;;;9.50;99.90;;;;;;5012875;28;20170;-66
2023/01/07 08:55:21;;;;;;;0.00;0.00;;;9.60;99.90;;;;;;5012527;28;20187;-66
2023/01/07 08:57:47;;;;;;;0.00;0.00;;;9.60;99.90;;;;;;5012414;28;20178;-66
2023/01/07 09:00:15;;;;;;;0.00;0.00;;;9.60;99.90;;;;;;5011350;28;20221;-66
2023/01/07 09:02:41;;;;;;;0.00;0.00;;;9.70;99.90;;;;;;5010116;28;20540;-67
2023/01/07 09:05:07;;;;;;;0.00;0.00;;;9.70;99.90;;;;;;5001675;28;20194;-66
2023/01/07 09:07:32;;;;;;;0.00;0.00;;;9.70;99.90;;;;;;4992853;28;20258;-66
2023/01/07 09:09:58;;;;;;;0.00;0.00;;;9.70;99.90;;;;;;5008119;28;20269;-66
2023/01/07 09:12:23;;;;;;;0.00;0.00;;;9.60;99.90;;;;;;5010361;28;20201;-67
2023/01/07 09:14:49;;;;;;;0.00;0.00;;;9.70;99.90;;;;;;5012268;28;20178;-66
2023/01/07 09:17:14;;;;;;;0.00;0.00;;;9.70;99.90;;;;;;4997492;28;20233;-66
2023/01/07 09:19:40;;;;;;;0.00;0.00;;;9.70;99.90;;;;;;4992679;28;20179;-66
2023/01/07 09:22:05;;;;;;;0.00;0.00;;;9.70;99.90;;;;;;4992905;28;20184;-66
2023/01/07 09:24:31;;;;;;;0.00;0.00;;;9.70;99.90;;;;;;4993930;28;20233;-66
2023/01/07 09:26:56;;;;;;;0.00;0.00;;;9.70;99.90;;;;;;4992988;28;20245;-68
2023/01/07 09:29:22;;;;;;;0.00;0.00;;;9.90;99.90;;;;;;5006166;28;20648;-66
2023/01/07 09:31:48;;;;;;;0.00;0.00;;;9.80;99.90;;;;;;5012069;28;20189;-66
2023/01/07 09:34:13;;;;;;;0.00;0.00;;;9.80;99.90;;;;;;5012373;28;20592;-66
2023/01/07 09:36:40;;;;;;;0.00;0.00;;;9.80;99.90;;;;;;5012174;28;20203;-66
2023/01/07 09:39:05;;;;;;;0.00;0.00;;;9.90;99.90;;;;;;5011637;28;20179;-66
2023/01/07 09:42:00;;;;;;;0.00;0.00;;;9.90;99.90;;;;;;5012109;28;20273;-66
2023/01/07 09:44:55;;;;;;;0.00;0.00;;;9.90;99.90;;;;;;5011964;28;20171;-66
2023/01/07 09:47:23;;;;;;;0.00;0.00;;;9.90;99.90;;;;;;5012007;28;20175;-66
2023/01/07 09:49:54;;;;;;;0.00;0.00;;;9.90;99.90;;;;;;5011951;28;20274;-67
2023/01/07 09:52:29;;;;;;;0.00;0.00;;;9.90;99.90;;;;;;5012125;28;20630;-66
2023/01/07 09:55:11;;;;;;;0.00;0.00;;;9.90;99.90;;;;;;5011858;28;20336;-66
2023/01/07 09:57:36;;;;;;;0.00;0.00;;;9.90;99.90;;;;;;5011928;28;20181;-66
2023/01/07 10:00:04;;;;;;;0.00;0.00;;;9.90;99.90;;;;;;5011850;28;20195;-66
2023/01/07 10:02:42;;;;;;;0.00;0.00;;;9.90;99.90;;;;;;5011787;28;20202;-66
2023/01/07 10:05:55;;;;;;;0.00;0.00;;;9.90;99.90;;;;;;5011447;28;20201;-66
2023/01/07 10:08:31;;;;;;;0.00;0.00;;;9.90;99.90;;;;;;4932251;29;20188;-66
2023/01/07 10:11:13;;;;;;;0.00;0.00;;;9.90;99.90;;;;;;4932425;29;20224;-66
2023/01/07 10:14:19;;;;;;;0.00;0.00;;;9.90;99.90;;;;;;4988593;28;20252;-66
2023/01/07 10:17:05;;;;;;;0.00;0.00;;;10.00;99.90;;;;;;5011800;28;20286;-66
2023/01/07 10:19:51;;;;;;;0.00;0.00;;;9.90;99.90;;;;;;5011700;28;20183;-66
2023/01/07 10:22:32;;;;;;;0.00;0.00;;;10.00;99.90;;;;;;5011929;28;20245;-66
2023/01/07 10:25:16;;;;;;;0.00;0.00;;;10.00;99.90;;;;;;5011850;28;20190;-66
2023/01/07 10:27:45;;;;;;;0.00;0.00;;;10.00;99.90;;;;;;5013582;28;20179;-66
2023/01/07 10:30:28;;;;;;;0.00;0.00;;;10.00;99.90;;;;;;5015660;28;20188;-66
2023/01/07 10:33:03;;;;;;;0.00;0.00;;;9.90;99.90;;;;;;5015639;28;20179;-66
2023/01/07 10:35:32;;;;;;;0.08;0.08;;;10.00;99.90;;;;;;5015531;28;20186;-66
2023/01/07 10:38:00;;;;;;;0.00;0.00;;;10.00;99.90;;;;;;5015501;28;20202;-66
2023/01/07 10:40:48;;;;;;;0.00;0.00;;;10.10;99.90;;;;;;5015306;28;20222;-66
2023/01/07 10:43:36;;;;;;;0.00;0.00;;;10.10;99.90;;;;;;5015469;28;20182;-66
2023/01/07 10:46:07;;;;;;;0.00;0.00;;;10.20;99.90;;;;;;5013665;28;20183;-65
2023/01/07 10:48:52;;;;;;;0.00;0.00;;;10.30;99.90;;;;;;5015252;28;20278;-65
2023/01/07 10:51:39;;;;;;;0.00;0.00;;;10.40;99.90;;;;;;5015367;28;20626;-65
2023/01/07 10:54:45;;;;;;;0.10;0.10;;;10.40;99.90;;;;;;5014815;28;20246;-65
2023/01/07 10:57:22;;;;;;;0.00;0.00;;;10.50;99.90;;;;;;5015234;28;20179;-65
2023/01/07 10:59:54;;;;;;;0.00;0.00;;;10.60;99.90;;;;;;5015085;28;20182;-65
2023/01/07 11:02:22;;;;;;;0.00;0.00;;;10.60;99.90;;;;;;5012599;28;20661;-65
2023/01/07 11:04:48;;;;;;;0.00;0.00;;;10.60;99.90;;;;;;5014919;28;20274;-65
2023/01/07 11:07:39;;;;;;;0.00;0.00;;;10.60;99.90;;;;;;5013717;28;20274;-67
2023/01/07 11:10:11;;;;;;;0.00;0.00;;;10.70;99.90;;;;;;5007251;28;20184;-65
2023/01/07 11:12:41;;;;;;;0.00;0.00;;;10.80;99.90;;;;;;4995313;28;20172;-66
2023/01/07 11:15:32;;;;;;;0.00;0.00;;;10.80;99.90;;;;;;4995221;28;20175;-66
2023/01/07 11:18:00;;;;;;;0.00;0.00;;;10.90;99.90;;;;;;4995333;28;20188;-66
2023/01/07 11:20:50;;;;;;;0.00;0.00;;;11.00;99.90;;;;;;4994943;28;20203;-66
2023/01/07 11:23:32;;;;;;;0.15;0.10;;;11.10;99.90;;;;;;4995086;28;20183;-66
2023/01/07 11:26:11;;;;;;;0.00;0.00;;;11.10;99.90;;;;;;4995149;28;20175;-66
2023/01/07 11:28:45;;;;;;;0.00;0.00;;;11.10;99.90;;;;;;4999298;28;20269;-66
2023/01/07 11:31:11;;;;;;;0.00;0.00;;;11.20;99.90;;;;;;5014582;28;20198;-66
2023/01/07 11:33:45;;;;;;;0.00;0.00;;;11.30;99.90;;;;;;5014468;28;20584;-66
2023/01/07 11:36:12;;;;;;;0.00;0.00;;;11.40;99.90;;;;;;5014780;28;20170;-66
2023/01/07 11:38:38;;;;;;;0.00;0.00;;;11.40;99.90;;;;;;5012874;28;20576;-66
2023/01/07 11:41:16;;;;;;;0.00;0.00;;;11.40;99.90;;;;;;5014086;28;20215;-66
2023/01/07 11:43:47;;;;;;;0.00;0.00;;;11.40;99.90;;;;;;5014135;28;20182;-66
2023/01/07 11:46:14;;;;;;;0.00;0.00;;;11.50;99.90;;;;;;5014071;28;20273;-74
2023/01/07 11:48:48;;;;;;;0.00;0.00;;;11.50;99.90;;;;;;5013085;28;20179;-71
2023/01/07 11:51:15;;;;;;;0.00;0.00;;;11.40;99.90;;;;;;5010048;28;20182;-69
2023/01/07 11:53:50;;;;;;;0.00;0.00;;;11.40;99.90;;;;;;5016398;28;20558;-68
2023/01/07 11:56:22;;;;;;;0.00;0.00;;;11.50;99.90;;;;;;5020558;28;20201;-68
2023/01/07 11:58:51;;;;;;;0.00;0.00;;;11.70;99.90;;;;;;4997825;28;20210;-68
2023/01/07 12:01:22;;;;;;;0.00;0.00;;;11.90;99.90;;;;;;4994311;28;20227;-68
2023/01/07 12:03:50;;;;;;;0.10;0.10;;;12.10;99.90;;;;;;4994131;28;20183;-68
2023/01/07 12:06:27;;;;;;;0.00;0.00;;;12.30;99.90;;;;;;4994388;28;20270;-68
2023/01/07 12:09:19;;;;;;;0.00;0.00;;;12.40;99.90;;;;;;4994383;28;20179;-67
2023/01/07 12:11:45;;;;;;;0.00;0.00;;;12.60;99.90;;;;;;5007465;28;20182;-68
2023/01/07 12:14:24;;;;;;;0.05;0.05;;;12.60;99.90;;;;;;5013511;28;20281;-68
2023/01/07 12:16:51;;;;;;;0.00;0.00;;;12.60;99.90;;;;;;5013707;28;20175;-67
2023/01/07 12:19:33;;;;;;;0.00;0.00;;;12.60;99.70;;;;;;5009560;28;20232;-68
2023/01/07 12:22:10;;;;;;;0.13;0.13;;;12.50;99.90;;;;;;5021907;28;20287;-68
2023/01/07 12:25:00;;;;;;;0.10;0.10;;;12.60;99.90;;;;;;5020803;28;20543;-67
2023/01/07 12:28:03;;;;;;;0.00;0.00;;;12.60;99.90;;;;;;5018790;28;20192;-67
2023/01/07 12:30:53;;;;;;;0.00;0.00;;;12.70;99.90;;;;;;4993637;28;20672;-67
2023/01/07 12:33:50;;;;;;;0.00;0.00;;;12.70;99.90;;;;;;4993969;28;20259;-67
2023/01/07 12:36:31;;;;;;;0.00;0.00;;;12.70;99.90;;;;;;5001922;28;20607;-68
2023/01/07 12:39:02;;;;;;;0.00;0.00;;;12.70;99.90;;;;;;5013448;28;20171;-68
2023/01/07 12:41:40;;;;;;;0.00;0.00;;;12.70;99.90;;;;;;5012675;28;20297;-68
2023/01/07 12:44:20;;;;;;;0.00;0.00;;;12.70;99.90;;;;;;5012731;28;20649;-68
2023/01/07 12:47:05;;;;;;;0.00;0.00;;;12.70;99.90;;;;;;5013016;28;20182;-68
2023/01/07 12:49:41;;;;;;;0.00;0.00;;;12.60;99.90;;;;;;4995169;28;20258;-68
2023/01/07 12:52:26;;;;;;;0.00;0.00;;;12.60;99.90;;;;;;5012905;28;20183;-68
2023/01/07 12:54:58;;;;;;;0.00;0.00;;;12.70;99.90;;;;;;5012833;28;20720;-68
2023/01/07 12:57:29;;;;;;;0.00;0.00;;;12.70;99.90;;;;;;5012543;28;20657;-68
2023/01/07 13:00:07;;;;;;;0.08;0.08;;;12.70;99.90;;;;;;5009572;28;20179;-68
2023/01/07 13:02:54;;;;;;;0.00;0.00;;;12.60;99.80;;;;;;4993205;28;20256;-68
2023/01/07 13:05:25;;;;;;;0.00;0.00;;;12.60;99.90;;;;;;4993271;28;20176;-68
2023/01/07 13:07:55;;;;;;;0.00;0.00;;;12.50;99.90;;;;;;4998135;28;20206;-68
2023/01/07 13:10:37;;;;;;;0.00;0.00;;;12.50;99.90;;;;;;5012313;28;20183;-68
2023/01/07 13:13:10;;;;;;;0.00;0.00;;;12.40;99.90;;;;;;5012354;28;20256;-68